sensor_id;sensor_type;location;lat;lon;timestamp;temperature;humidity
12720;DHT22;6424;48.520;11.228;2023-08-06T00:01:48;14.00;99.90
12720;DHT22;6424;48.520;11.228;2023-08-06T00:04:29;13.90;99.90
12720;DHT22;6424;48.520;11.228;2023-08-06T00:07:10;13.90;99.90
12720;DHT22;6424;48.520;11.228;2023-08-06T00:09:51;13.90;99.90
12720;DHT22;6424;48.520;11.228;2023-08-06T00:12:31;13.90;99.90
12720;DHT22;6424;48.520;11.228;2023-08-06T00:15:12;13.90;99.90
12720;DHT22;6424;48.520;11.228;2023-08-06T00:17:53;13.90;99.90
12720;DHT22;6424;48.520;11.228;2023-08-06T00:20:34;13.90;99.90
12720;DHT22;6424;48.520;11.228;2023-08-06T00:23:14;13.90;99.90
12720;DHT22;6424;48.520;11.228;2023-08-06T00:25:55;13.80;99.90
12720;DHT22;6424;48.520;11.228;2023-08-06T00:28:36;13.80;99.90
12720;DHT22;6424;48.520;11.228;2023-08-06T00:31:16;13.80;99.90
12720;DHT22;6424;48.520;11.228;2023-08-06T00:33:57;13.80;99.90
12720;DHT22;6424;48.520;11.228;2023-08-06T00:36:38;13.80;99.90
12720;DHT22;6424;48.520;11.228;2023-08-06T00:39:19;13.80;99.90
12720;DHT22;6424;48.520;11.228;2023-08-06T00:42:00;13.80;99.90
12720;DHT22;6424;48.520;11.228;2023-08-06T00:44:40;13.80;99.90
12720;DHT22;6424;48.520;11.228;2023-08-06T00:47:21;13.80;99.90
12720;DHT22;6424;48.520;11.228;2023-08-06T00:50:02;13.80;99.90
12720;DHT22;6424;48.520;11.228;2023-08-06T00:52:43;13.80;99.90
12720;DHT22;6424;48.520;11.228;2023-08-06T00:55:24;13.80;99.90
12720;DHT22;6424;48.520;11.228;2023-08-06T00:58:05;13.90;99.90
12720;DHT22;6424;48.520;11.228;2023-08-06T01:00:46;13.90;99.90
12720;DHT22;6424;48.520;11.228;2023-08-06T01:03:27;13.90;99.90
12720;DHT22;6424;48.520;11.228;2023-08-06T01:05:53;13.90;99.90
12720;DHT22;6424;48.520;11.228;2023-08-06T01:14:18;14.00;99.90
12720;DHT22;6424;48.520;11.228;2023-08-06T01:17:01;14.00;99.90
12720;DHT22;6424;48.520;11.228;2023-08-06T01:19:42;14.00;99.90
12720;DHT22;6424;48.520;11.228;2023-08-06T01:22:23;14.00;99.90
12720;DHT22;6424;48.520;11.228;2023-08-06T01:25:05;14.10;99.90
12720;DHT22;6424;48.520;11.228;2023-08-06T01:27:49;14.10;99.90
12720;DHT22;6424;48.520;11.228;2023-08-06T01:30:31;14.10;99.90
12720;DHT22;6424;48.520;11.228;2023-08-06T01:33:04;14.00;99.90
12720;DHT22;6424;48.520;11.228;2023-08-06T01:35:46;14.00;99.90
12720;DHT22;6424;48.520;11.228;2023-08-06T01:38:29;14.10;99.90
12720;DHT22;6424;48.520;11.228;2023-08-06T01:41:09;14.10;99.90
12720;DHT22;6424;48.520;11.228;2023-08-06T01:43:50;14.10;99.90
12720;DHT22;6424;48.520;11.228;2023-08-06T01:46:31;14.10;99.90
12720;DHT22;6424;48.520;11.228;2023-08-06T01:49:12;14.10;99.90
12720;DHT22;6424;48.520;11.228;2023-08-06T01:51:37;14.10;99.90
12720;DHT22;6424;48.520;11.228;2023-08-06T01:54:18;14.10;99.90
12720;DHT22;6424;48.520;11.228;2023-08-06T01:56:59;14.10;99.90
12720;DHT22;6424;48.520;11.228;2023-08-06T01:59:40;14.10;99.90
12720;DHT22;6424;48.520;11.228;2023-08-06T02:02:20;14.10;99.90
12720;DHT22;6424;48.520;11.228;2023-08-06T02:05:01;14.10;99.90
12720;DHT22;6424;48.520;11.228;2023-08-06T02:07:42;14.10;99.90
12720;DHT22;6424;48.520;11.228;2023-08-06T02:10:23;14.00;99.90
12720;DHT22;6424;48.520;11.228;2023-08-06T02:13:04;14.00;99.90
12720;DHT22;6424;48.520;11.228;2023-08-06T02:15:45;14.00;99.90
12720;DHT22;6424;48.520;11.228;2023-08-06T02:18:28;14.00;99.90
12720;DHT22;6424;48.520;11.228;2023-08-06T02:21:08;14.00;99.90
12720;DHT22;6424;48.520;11.228;2023-08-06T02:23:49;13.90;99.90
12720;DHT22;6424;48.520;11.228;2023-08-06T02:26:30;13.90;99.90
12720;DHT22;6424;48.520;11.228;2023-08-06T02:29:10;13.90;99.90
12720;DHT22;6424;48.520;11.228;2023-08-06T02:31:51;13.90;99.90
12720;DHT22;6424;48.520;11.228;2023-08-06T02:34:32;13.80;99.90
12720;DHT22;6424;48.520;11.228;2023-08-06T02:37:13;13.80;99.90
12720;DHT22;6424;48.520;11.228;2023-08-06T02:39:53;13.80;99.90
12720;DHT22;6424;48.520;11.228;2023-08-06T02:42:34;13.80;99.90
12720;DHT22;6424;48.520;11.228;2023-08-06T02:45:15;13.80;99.90
12720;DHT22;6424;48.520;11.228;2023-08-06T02:47:40;13.80;99.90
12720;DHT22;6424;48.520;11.228;2023-08-06T02:50:21;13.80;99.90
12720;DHT22;6424;48.520;11.228;2023-08-06T02:53:02;13.70;99.90
12720;DHT22;6424;48.520;11.228;2023-08-06T02:55:47;13.80;99.90
12720;DHT22;6424;48.520;11.228;2023-08-06T02:58:28;13.70;99.90
12720;DHT22;6424;48.520;11.228;2023-08-06T03:01:09;13.70;99.90
12720;DHT22;6424;48.520;11.228;2023-08-06T03:03:49;13.70;99.90
12720;DHT22;6424;48.520;11.228;2023-08-06T03:06:30;13.70;99.90
12720;DHT22;6424;48.520;11.228;2023-08-06T03:09:11;13.60;99.90
12720;DHT22;6424;48.520;11.228;2023-08-06T03:11:51;13.60;99.90
12720;DHT22;6424;48.520;11.228;2023-08-06T03:14:32;13.60;99.90
12720;DHT22;6424;48.520;11.228;2023-08-06T03:17:13;13.60;99.90
12720;DHT22;6424;48.520;11.228;2023-08-06T03:19:54;13.50;99.90
12720;DHT22;6424;48.520;11.228;2023-08-06T03:22:34;13.50;99.90
12720;DHT22;6424;48.520;11.228;2023-08-06T03:25:15;13.50;99.90
12720;DHT22;6424;48.520;11.228;2023-08-06T03:27:56;13.40;99.90
12720;DHT22;6424;48.520;11.228;2023-08-06T03:30:37;13.40;99.90
12720;DHT22;6424;48.520;11.228;2023-08-06T03:33:17;13.40;99.90
12720;DHT22;6424;48.520;11.228;2023-08-06T03:35:58;13.30;99.90
12720;DHT22;6424;48.520;11.228;2023-08-06T03:38:39;13.30;99.90
12720;DHT22;6424;48.520;11.228;2023-08-06T03:41:20;13.20;99.90
12720;DHT22;6424;48.520;11.228;2023-08-06T03:44:01;13.20;99.90
12720;DHT22;6424;48.520;11.228;2023-08-06T03:46:44;13.10;99.90
12720;DHT22;6424;48.520;11.228;2023-08-06T03:49:24;13.10;99.90
12720;DHT22;6424;48.520;11.228;2023-08-06T03:52:06;13.10;99.90
12720;DHT22;6424;48.520;11.228;2023-08-06T03:54:46;13.00;99.90
12720;DHT22;6424;48.520;11.228;2023-08-06T03:57:12;13.00;99.90
12720;DHT22;6424;48.520;11.228;2023-08-06T03:59:38;13.00;99.90
12720;DHT22;6424;48.520;11.228;2023-08-06T04:02:04;12.90;99.90
12720;DHT22;6424;48.520;11.228;2023-08-06T04:04:45;12.90;99.90
12720;DHT22;6424;48.520;11.228;2023-08-06T04:07:10;12.90;99.90
12720;DHT22;6424;48.520;11.228;2023-08-06T04:09:58;12.90;99.90
12720;DHT22;6424;48.520;11.228;2023-08-06T04:12:39;12.90;99.90
12720;DHT22;6424;48.520;11.228;2023-08-06T04:15:20;13.00;99.90
12720;DHT22;6424;48.520;11.228;2023-08-06T04:18:01;13.00;99.90
12720;DHT22;6424;48.520;11.228;2023-08-06T04:20:46;13.00;99.90
12720;DHT22;6424;48.520;11.228;2023-08-06T04:23:27;13.10;99.90
12720;DHT22;6424;48.520;11.228;2023-08-06T04:26:07;13.10;99.90
12720;DHT22;6424;48.520;11.228;2023-08-06T04:28:48;13.10;99.90
12720;DHT22;6424;48.520;11.228;2023-08-06T04:31:29;13.20;99.90
12720;DHT22;6424;48.520;11.228;2023-08-06T04:34:10;13.20;99.90
12720;DHT22;6424;48.520;11.228;2023-08-06T04:36:50;13.30;99.90
12720;DHT22;6424;48.520;11.228;2023-08-06T04:39:31;13.30;99.90
12720;DHT22;6424;48.520;11.228;2023-08-06T04:41:57;13.30;99.90
12720;DHT22;6424;48.520;11.228;2023-08-06T04:44:38;13.40;99.90
12720;DHT22;6424;48.520;11.228;2023-08-06T04:47:19;13.40;99.90
12720;DHT22;6424;48.520;11.228;2023-08-06T04:49:59;13.50;99.90
12720;DHT22;6424;48.520;11.228;2023-08-06T04:52:40;13.50;99.90
12720;DHT22;6424;48.520;11.228;2023-08-06T04:55:21;13.50;99.90
12720;DHT22;6424;48.520;11.228;2023-08-06T04:57:47;13.60;99.90
12720;DHT22;6424;48.520;11.228;2023-08-06T05:00:28;13.70;99.90
12720;DHT22;6424;48.520;11.228;2023-08-06T05:03:08;13.60;99.90
12720;DHT22;6424;48.520;11.228;2023-08-06T05:05:34;13.70;99.90
12720;DHT22;6424;48.520;11.228;2023-08-06T05:08:15;13.70;99.90
12720;DHT22;6424;48.520;11.228;2023-08-06T05:10:57;13.70;99.90
12720;DHT22;6424;48.520;11.228;2023-08-06T05:13:37;13.80;99.90
12720;DHT22;6424;48.520;11.228;2023-08-06T05:16:18;13.80;99.90
12720;DHT22;6424;48.520;11.228;2023-08-06T05:18:59;13.80;99.90
12720;DHT22;6424;48.520;11.228;2023-08-06T05:21:40;13.80;99.90
12720;DHT22;6424;48.520;11.228;2023-08-06T05:24:20;13.90;99.90
12720;DHT22;6424;48.520;11.228;2023-08-06T05:27:01;14.20;99.90
12720;DHT22;6424;48.520;11.228;2023-08-06T05:29:27;15.20;99.90
12720;DHT22;6424;48.520;11.228;2023-08-06T05:32:07;16.00;99.90
12720;DHT22;6424;48.520;11.228;2023-08-06T05:34:49;16.10;99.90
12720;DHT22;6424;48.520;11.228;2023-08-06T05:37:30;16.20;99.90
12720;DHT22;6424;48.520;11.228;2023-08-06T05:40:11;16.60;99.90
12720;DHT22;6424;48.520;11.228;2023-08-06T05:42:54;17.10;99.90
12720;DHT22;6424;48.520;11.228;2023-08-06T05:45:35;17.50;99.90
12720;DHT22;6424;48.520;11.228;2023-08-06T05:48:16;18.40;99.90
12720;DHT22;6424;48.520;11.228;2023-08-06T05:50:57;19.40;99.90
12720;DHT22;6424;48.520;11.228;2023-08-06T05:53:37;19.80;99.90
12720;DHT22;6424;48.520;11.228;2023-08-06T05:56:19;19.90;99.90
12720;DHT22;6424;48.520;11.228;2023-08-06T05:58:59;20.20;99.90
12720;DHT22;6424;48.520;11.228;2023-08-06T06:01:40;20.60;99.90
12720;DHT22;6424;48.520;11.228;2023-08-06T06:04:06;20.30;99.90
12720;DHT22;6424;48.520;11.228;2023-08-06T06:06:47;19.60;99.90
12720;DHT22;6424;48.520;11.228;2023-08-06T06:09:27;18.60;99.90
12720;DHT22;6424;48.520;11.228;2023-08-06T06:12:08;17.80;99.90
12720;DHT22;6424;48.520;11.228;2023-08-06T06:14:49;17.10;99.90
12720;DHT22;6424;48.520;11.228;2023-08-06T06:17:30;16.60;99.90
12720;DHT22;6424;48.520;11.228;2023-08-06T06:20:10;16.30;99.90
12720;DHT22;6424;48.520;11.228;2023-08-06T06:22:51;16.00;99.90
12720;DHT22;6424;48.520;11.228;2023-08-06T06:25:32;15.80;99.90
12720;DHT22;6424;48.520;11.228;2023-08-06T06:28:13;15.70;99.90
12720;DHT22;6424;48.520;11.228;2023-08-06T06:30:53;15.60;99.90
12720;DHT22;6424;48.520;11.228;2023-08-06T06:33:40;15.50;99.90
12720;DHT22;6424;48.520;11.228;2023-08-06T06:36:20;15.50;99.90
12720;DHT22;6424;48.520;11.228;2023-08-06T06:39:01;15.40;99.90
12720;DHT22;6424;48.520;11.228;2023-08-06T06:41:42;15.40;99.90
12720;DHT22;6424;48.520;11.228;2023-08-06T06:44:24;15.30;99.90
12720;DHT22;6424;48.520;11.228;2023-08-06T06:47:05;15.30;99.90
12720;DHT22;6424;48.520;11.228;2023-08-06T06:49:46;15.30;99.90
12720;DHT22;6424;48.520;11.228;2023-08-06T06:52:26;15.30;99.90
12720;DHT22;6424;48.520;11.228;2023-08-06T06:55:07;15.30;99.90
12720;DHT22;6424;48.520;11.228;2023-08-06T06:57:48;15.60;99.90
12720;DHT22;6424;48.520;11.228;2023-08-06T07:00:29;16.00;99.90
12720;DHT22;6424;48.520;11.228;2023-08-06T07:03:09;16.10;99.90
12720;DHT22;6424;48.520;11.228;2023-08-06T07:05:50;16.10;99.90
12720;DHT22;6424;48.520;11.228;2023-08-06T07:08:31;16.10;99.90
12720;DHT22;6424;48.520;11.228;2023-08-06T07:11:12;16.00;99.90
12720;DHT22;6424;48.520;11.228;2023-08-06T07:13:38;15.90;99.90
12720;DHT22;6424;48.520;11.228;2023-08-06T07:16:18;15.80;99.90
12720;DHT22;6424;48.520;11.228;2023-08-06T07:18:59;15.80;99.90
12720;DHT22;6424;48.520;11.228;2023-08-06T07:21:40;15.70;99.90
12720;DHT22;6424;48.520;11.228;2023-08-06T07:24:06;15.80;99.90
12720;DHT22;6424;48.520;11.228;2023-08-06T07:26:46;15.90;99.90
12720;DHT22;6424;48.520;11.228;2023-08-06T07:29:27;15.90;99.90
12720;DHT22;6424;48.520;11.228;2023-08-06T07:32:08;16.10;99.90
12720;DHT22;6424;48.520;11.228;2023-08-06T07:34:49;16.30;99.90
12720;DHT22;6424;48.520;11.228;2023-08-06T07:37:30;16.50;99.90
12720;DHT22;6424;48.520;11.228;2023-08-06T07:40:11;16.60;99.90
12720;DHT22;6424;48.520;11.228;2023-08-06T07:42:51;16.70;99.90
12720;DHT22;6424;48.520;11.228;2023-08-06T07:45:33;16.90;99.90
12720;DHT22;6424;48.520;11.228;2023-08-06T07:48:15;17.10;99.90
12720;DHT22;6424;48.520;11.228;2023-08-06T07:50:56;17.10;99.90
12720;DHT22;6424;48.520;11.228;2023-08-06T07:53:37;16.90;99.90
12720;DHT22;6424;48.520;11.228;2023-08-06T07:56:18;16.80;99.90
12720;DHT22;6424;48.520;11.228;2023-08-06T07:58:58;16.80;99.90
12720;DHT22;6424;48.520;11.228;2023-08-06T08:01:39;16.80;99.90
12720;DHT22;6424;48.520;11.228;2023-08-06T08:04:20;16.50;99.90
12720;DHT22;6424;48.520;11.228;2023-08-06T08:07:01;16.30;99.90
12720;DHT22;6424;48.520;11.228;2023-08-06T08:09:42;16.20;99.90
12720;DHT22;6424;48.520;11.228;2023-08-06T08:12:23;16.20;99.90
12720;DHT22;6424;48.520;11.228;2023-08-06T08:15:04;16.40;99.90
12720;DHT22;6424;48.520;11.228;2023-08-06T08:17:45;16.60;99.90
12720;DHT22;6424;48.520;11.228;2023-08-06T08:20:28;16.80;99.90
12720;DHT22;6424;48.520;11.228;2023-08-06T08:23:12;17.10;99.90
12720;DHT22;6424;48.520;11.228;2023-08-06T08:25:52;17.10;99.90
12720;DHT22;6424;48.520;11.228;2023-08-06T08:28:33;16.90;99.90
12720;DHT22;6424;48.520;11.228;2023-08-06T08:31:14;16.80;99.90
12720;DHT22;6424;48.520;11.228;2023-08-06T08:33:56;16.60;99.90
12720;DHT22;6424;48.520;11.228;2023-08-06T08:36:37;16.30;99.90
12720;DHT22;6424;48.520;11.228;2023-08-06T08:39:17;16.20;99.90
12720;DHT22;6424;48.520;11.228;2023-08-06T08:41:58;16.10;99.90
12720;DHT22;6424;48.520;11.228;2023-08-06T08:44:40;16.20;99.90
12720;DHT22;6424;48.520;11.228;2023-08-06T08:47:07;16.20;99.90
12720;DHT22;6424;48.520;11.228;2023-08-06T08:49:54;16.20;99.90
12720;DHT22;6424;48.520;11.228;2023-08-06T08:52:39;16.40;99.90
12720;DHT22;6424;48.520;11.228;2023-08-06T08:55:21;16.60;99.90
12720;DHT22;6424;48.520;11.228;2023-08-06T08:58:03;16.70;99.90
12720;DHT22;6424;48.520;11.228;2023-08-06T09:00:46;16.60;99.90
12720;DHT22;6424;48.520;11.228;2023-08-06T09:03:29;16.40;99.90
12720;DHT22;6424;48.520;11.228;2023-08-06T09:05:55;16.20;99.90
12720;DHT22;6424;48.520;11.228;2023-08-06T09:08:43;15.90;99.90
12720;DHT22;6424;48.520;11.228;2023-08-06T09:11:12;15.80;99.90
12720;DHT22;6424;48.520;11.228;2023-08-06T09:13:54;16.00;99.90
12720;DHT22;6424;48.520;11.228;2023-08-06T09:16:36;16.20;99.90
12720;DHT22;6424;48.520;11.228;2023-08-06T09:19:11;16.50;99.90
12720;DHT22;6424;48.520;11.228;2023-08-06T09:21:54;16.90;99.90
12720;DHT22;6424;48.520;11.228;2023-08-06T09:24:38;17.40;99.90
12720;DHT22;6424;48.520;11.228;2023-08-06T09:27:19;17.70;99.90
12720;DHT22;6424;48.520;11.228;2023-08-06T09:30:04;17.60;99.90
12720;DHT22;6424;48.520;11.228;2023-08-06T09:32:48;17.10;99.90
12720;DHT22;6424;48.520;11.228;2023-08-06T09:35:32;16.80;99.90
12720;DHT22;6424;48.520;11.228;2023-08-06T09:38:13;16.50;99.90
12720;DHT22;6424;48.520;11.228;2023-08-06T09:40:53;16.40;99.90
12720;DHT22;6424;48.520;11.228;2023-08-06T09:43:43;16.40;99.90
12720;DHT22;6424;48.520;11.228;2023-08-06T09:46:24;16.90;99.90
12720;DHT22;6424;48.520;11.228;2023-08-06T09:49:05;17.50;99.90
12720;DHT22;6424;48.520;11.228;2023-08-06T09:51:49;17.80;99.90
12720;DHT22;6424;48.520;11.228;2023-08-06T09:54:32;17.60;99.90
12720;DHT22;6424;48.520;11.228;2023-08-06T09:57:15;17.10;99.90
12720;DHT22;6424;48.520;11.228;2023-08-06T09:59:56;16.50;99.90
12720;DHT22;6424;48.520;11.228;2023-08-06T10:02:24;15.90;99.90
12720;DHT22;6424;48.520;11.228;2023-08-06T10:05:08;15.60;99.90
12720;DHT22;6424;48.520;11.228;2023-08-06T10:07:49;15.40;99.90
12720;DHT22;6424;48.520;11.228;2023-08-06T10:10:31;15.30;99.90
12720;DHT22;6424;48.520;11.228;2023-08-06T10:13:13;15.10;99.90
12720;DHT22;6424;48.520;11.228;2023-08-06T10:15:54;15.00;99.90
12720;DHT22;6424;48.520;11.228;2023-08-06T10:18:20;15.00;99.90
12720;DHT22;6424;48.520;11.228;2023-08-06T10:20:48;14.90;99.90
12720;DHT22;6424;48.520;11.228;2023-08-06T10:23:36;14.90;99.90
12720;DHT22;6424;48.520;11.228;2023-08-06T10:26:18;14.90;99.90
12720;DHT22;6424;48.520;11.228;2023-08-06T10:28:59;14.90;99.90
12720;DHT22;6424;48.520;11.228;2023-08-06T10:34:57;15.00;99.90
12720;DHT22;6424;48.520;11.228;2023-08-06T10:37:38;15.10;99.90
12720;DHT22;6424;48.520;11.228;2023-08-06T10:40:21;15.30;99.90
12720;DHT22;6424;48.520;11.228;2023-08-06T10:43:03;15.50;99.90
12720;DHT22;6424;48.520;11.228;2023-08-06T10:45:29;15.90;99.90
12720;DHT22;6424;48.520;11.228;2023-08-06T10:48:11;16.00;99.90
12720;DHT22;6424;48.520;11.228;2023-08-06T10:50:51;16.20;99.90
12720;DHT22;6424;48.520;11.228;2023-08-06T10:53:32;16.50;99.90
12720;DHT22;6424;48.520;11.228;2023-08-06T10:56:17;16.70;99.90
12720;DHT22;6424;48.520;11.228;2023-08-06T10:58:59;16.70;99.90
12720;DHT22;6424;48.520;11.228;2023-08-06T11:01:39;16.80;99.90
12720;DHT22;6424;48.520;11.228;2023-08-06T11:04:06;16.70;99.90
12720;DHT22;6424;48.520;11.228;2023-08-06T11:06:32;16.60;99.90
12720;DHT22;6424;48.520;11.228;2023-08-06T11:08:59;16.30;99.90
12720;DHT22;6424;48.520;11.228;2023-08-06T11:11:39;16.10;99.90
12720;DHT22;6424;48.520;11.228;2023-08-06T11:14:20;15.80;99.90
12720;DHT22;6424;48.520;11.228;2023-08-06T11:17:01;15.60;99.90
12720;DHT22;6424;48.520;11.228;2023-08-06T11:19:27;15.50;99.90
12720;DHT22;6424;48.520;11.228;2023-08-06T11:21:54;15.40;99.90
12720;DHT22;6424;48.520;11.228;2023-08-06T11:24:20;15.30;99.90
12720;DHT22;6424;48.520;11.228;2023-08-06T11:27:01;15.20;99.90
12720;DHT22;6424;48.520;11.228;2023-08-06T11:29:43;15.40;99.90
12720;DHT22;6424;48.520;11.228;2023-08-06T11:32:24;15.50;99.90
12720;DHT22;6424;48.520;11.228;2023-08-06T11:34:50;15.70;99.90
12720;DHT22;6424;48.520;11.228;2023-08-06T11:37:31;15.90;99.90
12720;DHT22;6424;48.520;11.228;2023-08-06T11:40:14;16.20;99.90
12720;DHT22;6424;48.520;11.228;2023-08-06T11:42:55;16.20;99.90
12720;DHT22;6424;48.520;11.228;2023-08-06T11:45:36;16.30;99.90
12720;DHT22;6424;48.520;11.228;2023-08-06T11:48:17;16.60;99.90
12720;DHT22;6424;48.520;11.228;2023-08-06T11:50:58;16.90;99.90
12720;DHT22;6424;48.520;11.228;2023-08-06T11:53:39;17.10;99.90
12720;DHT22;6424;48.520;11.228;2023-08-06T11:56:20;17.20;99.90
12720;DHT22;6424;48.520;11.228;2023-08-06T11:59:00;17.10;99.90
12720;DHT22;6424;48.520;11.228;2023-08-06T12:01:42;17.10;99.90
12720;DHT22;6424;48.520;11.228;2023-08-06T12:04:23;17.10;99.90
12720;DHT22;6424;48.520;11.228;2023-08-06T12:07:07;17.20;99.90
12720;DHT22;6424;48.520;11.228;2023-08-06T12:09:50;17.20;99.90
12720;DHT22;6424;48.520;11.228;2023-08-06T12:12:31;17.30;99.90
12720;DHT22;6424;48.520;11.228;2023-08-06T12:15:12;17.40;99.90
12720;DHT22;6424;48.520;11.228;2023-08-06T12:17:53;17.60;99.90
12720;DHT22;6424;48.520;11.228;2023-08-06T12:20:34;17.50;99.90
12720;DHT22;6424;48.520;11.228;2023-08-06T12:23:14;17.40;99.90
12720;DHT22;6424;48.520;11.228;2023-08-06T12:25:56;17.30;99.90
12720;DHT22;6424;48.520;11.228;2023-08-06T12:28:36;17.20;99.90
12720;DHT22;6424;48.520;11.228;2023-08-06T12:31:17;17.10;99.90
12720;DHT22;6424;48.520;11.228;2023-08-06T12:33:58;17.10;99.90
12720;DHT22;6424;48.520;11.228;2023-08-06T12:36:38;17.10;99.90
12720;DHT22;6424;48.520;11.228;2023-08-06T12:39:19;17.10;99.90
12720;DHT22;6424;48.520;11.228;2023-08-06T12:42:02;17.10;99.90
12720;DHT22;6424;48.520;11.228;2023-08-06T12:44:43;17.20;99.90
12720;DHT22;6424;48.520;11.228;2023-08-06T12:47:23;17.30;99.90
12720;DHT22;6424;48.520;11.228;2023-08-06T12:49:49;17.20;99.90
12720;DHT22;6424;48.520;11.228;2023-08-06T12:52:30;17.20;99.90
12720;DHT22;6424;48.520;11.228;2023-08-06T12:55:11;17.20;99.90
12720;DHT22;6424;48.520;11.228;2023-08-06T12:57:51;17.20;99.90
12720;DHT22;6424;48.520;11.228;2023-08-06T13:00:32;17.20;99.90
12720;DHT22;6424;48.520;11.228;2023-08-06T13:03:14;17.20;99.90
12720;DHT22;6424;48.520;11.228;2023-08-06T13:05:55;17.20;99.90
12720;DHT22;6424;48.520;11.228;2023-08-06T13:08:36;17.00;99.90
12720;DHT22;6424;48.520;11.228;2023-08-06T13:11:18;16.80;99.90
12720;DHT22;6424;48.520;11.228;2023-08-06T13:14:04;16.60;99.90
12720;DHT22;6424;48.520;11.228;2023-08-06T13:16:46;16.60;99.90
12720;DHT22;6424;48.520;11.228;2023-08-06T13:19:28;16.40;99.90
12720;DHT22;6424;48.520;11.228;2023-08-06T13:24:50;16.20;99.90
12720;DHT22;6424;48.520;11.228;2023-08-06T13:27:31;16.10;99.90
12720;DHT22;6424;48.520;11.228;2023-08-06T13:29:57;16.30;99.90
12720;DHT22;6424;48.520;11.228;2023-08-06T13:32:37;16.50;99.90
12720;DHT22;6424;48.520;11.228;2023-08-06T13:35:18;16.60;99.90
12720;DHT22;6424;48.520;11.228;2023-08-06T13:37:59;16.60;99.90
12720;DHT22;6424;48.520;11.228;2023-08-06T13:40:40;16.80;99.90
12720;DHT22;6424;48.520;11.228;2023-08-06T13:43:20;16.90;99.90
12720;DHT22;6424;48.520;11.228;2023-08-06T13:46:02;16.90;99.90
12720;DHT22;6424;48.520;11.228;2023-08-06T13:48:44;17.00;99.90
12720;DHT22;6424;48.520;11.228;2023-08-06T13:51:25;16.90;99.90
12720;DHT22;6424;48.520;11.228;2023-08-06T13:54:05;16.70;99.90
12720;DHT22;6424;48.520;11.228;2023-08-06T13:56:32;16.40;99.90
12720;DHT22;6424;48.520;11.228;2023-08-06T13:59:13;16.20;99.90
12720;DHT22;6424;48.520;11.228;2023-08-06T14:01:54;16.10;99.90
12720;DHT22;6424;48.520;11.228;2023-08-06T14:04:37;15.90;99.90
12720;DHT22;6424;48.520;11.228;2023-08-06T14:07:17;15.70;99.90
12720;DHT22;6424;48.520;11.228;2023-08-06T14:09:58;15.70;99.90
12720;DHT22;6424;48.520;11.228;2023-08-06T14:12:39;15.70;99.90
12720;DHT22;6424;48.520;11.228;2023-08-06T14:15:20;15.70;99.90
12720;DHT22;6424;48.520;11.228;2023-08-06T14:18:00;15.80;99.90
12720;DHT22;6424;48.520;11.228;2023-08-06T14:20:42;15.80;99.90
12720;DHT22;6424;48.520;11.228;2023-08-06T14:23:23;15.80;99.90
12720;DHT22;6424;48.520;11.228;2023-08-06T14:26:04;15.70;99.90
12720;DHT22;6424;48.520;11.228;2023-08-06T14:28:44;15.60;99.90
12720;DHT22;6424;48.520;11.228;2023-08-06T14:31:11;15.50;99.90
12720;DHT22;6424;48.520;11.228;2023-08-06T14:33:52;15.40;99.90
12720;DHT22;6424;48.520;11.228;2023-08-06T14:36:33;15.30;99.90
12720;DHT22;6424;48.520;11.228;2023-08-06T14:39:13;15.30;99.90
12720;DHT22;6424;48.520;11.228;2023-08-06T14:41:54;15.10;99.90
12720;DHT22;6424;48.520;11.228;2023-08-06T14:44:35;15.00;99.90
12720;DHT22;6424;48.520;11.228;2023-08-06T14:47:16;15.00;99.90
12720;DHT22;6424;48.520;11.228;2023-08-06T14:49:56;14.90;99.90
12720;DHT22;6424;48.520;11.228;2023-08-06T14:52:37;14.90;99.90
12720;DHT22;6424;48.520;11.228;2023-08-06T14:55:27;14.80;99.90
12720;DHT22;6424;48.520;11.228;2023-08-06T14:57:53;14.70;99.90
12720;DHT22;6424;48.520;11.228;2023-08-06T15:00:34;14.60;99.90
12720;DHT22;6424;48.520;11.228;2023-08-06T15:03:00;14.60;99.90
12720;DHT22;6424;48.520;11.228;2023-08-06T15:05:43;14.60;99.90
12720;DHT22;6424;48.520;11.228;2023-08-06T15:08:25;14.60;99.90
12720;DHT22;6424;48.520;11.228;2023-08-06T15:11:06;14.60;99.90
12720;DHT22;6424;48.520;11.228;2023-08-06T15:13:32;14.60;99.90
12720;DHT22;6424;48.520;11.228;2023-08-06T15:16:12;14.60;99.90
12720;DHT22;6424;48.520;11.228;2023-08-06T15:18:53;14.60;99.90
12720;DHT22;6424;48.520;11.228;2023-08-06T15:21:34;14.50;99.90
12720;DHT22;6424;48.520;11.228;2023-08-06T15:24:14;14.50;99.90
12720;DHT22;6424;48.520;11.228;2023-08-06T15:26:55;14.50;99.90
12720;DHT22;6424;48.520;11.228;2023-08-06T15:29:36;14.40;99.90
12720;DHT22;6424;48.520;11.228;2023-08-06T15:32:17;14.30;99.90
12720;DHT22;6424;48.520;11.228;2023-08-06T15:34:58;14.30;99.90
12720;DHT22;6424;48.520;11.228;2023-08-06T15:37:39;14.20;99.90
12720;DHT22;6424;48.520;11.228;2023-08-06T15:40:19;14.30;99.90
12720;DHT22;6424;48.520;11.228;2023-08-06T15:43:00;14.30;99.90
12720;DHT22;6424;48.520;11.228;2023-08-06T15:45:41;14.30;99.90
12720;DHT22;6424;48.520;11.228;2023-08-06T15:48:22;14.30;99.90
12720;DHT22;6424;48.520;11.228;2023-08-06T15:51:02;14.30;99.90
12720;DHT22;6424;48.520;11.228;2023-08-06T15:53:43;14.30;99.90
12720;DHT22;6424;48.520;11.228;2023-08-06T15:56:24;14.30;99.90
12720;DHT22;6424;48.520;11.228;2023-08-06T16:02:05;14.20;99.90
12720;DHT22;6424;48.520;11.228;2023-08-06T16:04:47;14.20;99.90
12720;DHT22;6424;48.520;11.228;2023-08-06T16:07:28;14.10;99.90
12720;DHT22;6424;48.520;11.228;2023-08-06T16:10:09;14.10;99.90
12720;DHT22;6424;48.520;11.228;2023-08-06T16:12:50;14.00;99.90
12720;DHT22;6424;48.520;11.228;2023-08-06T16:15:31;14.00;99.90
12720;DHT22;6424;48.520;11.228;2023-08-06T16:18:11;13.90;99.90
12720;DHT22;6424;48.520;11.228;2023-08-06T16:20:46;13.90;99.90
12720;DHT22;6424;48.520;11.228;2023-08-06T16:23:28;13.80;99.90
12720;DHT22;6424;48.520;11.228;2023-08-06T16:26:08;13.80;99.90
12720;DHT22;6424;48.520;11.228;2023-08-06T16:28:34;13.80;99.90
12720;DHT22;6424;48.520;11.228;2023-08-06T16:31:15;13.70;99.90
12720;DHT22;6424;48.520;11.228;2023-08-06T16:33:56;13.70;99.90
12720;DHT22;6424;48.520;11.228;2023-08-06T16:36:36;13.70;99.90
12720;DHT22;6424;48.520;11.228;2023-08-06T16:39:17;13.70;99.90
12720;DHT22;6424;48.520;11.228;2023-08-06T16:42:00;13.70;99.90
12720;DHT22;6424;48.520;11.228;2023-08-06T16:44:41;13.60;99.90
12720;DHT22;6424;48.520;11.228;2023-08-06T16:47:22;13.50;99.90
12720;DHT22;6424;48.520;11.228;2023-08-06T16:50:02;13.50;99.90
12720;DHT22;6424;48.520;11.228;2023-08-06T16:52:29;13.40;99.90
12720;DHT22;6424;48.520;11.228;2023-08-06T16:55:09;13.30;99.90
12720;DHT22;6424;48.520;11.228;2023-08-06T16:57:50;13.20;99.90
12720;DHT22;6424;48.520;11.228;2023-08-06T17:00:31;13.20;99.90
12720;DHT22;6424;48.520;11.228;2023-08-06T17:03:14;13.10;99.90